createdAt,value
2019-05-29T00:00:07.929Z,95.7
2019-05-29T00:01:18.227Z,95.7
2019-05-29T00:02:08.436Z,95.8
2019-05-29T00:04:10.715Z,95.9
2019-05-29T00:05:12.416Z,96.1
2019-05-29T00:07:14.806Z,96.3
2019-05-29T00:08:16.201Z,96.3
2019-05-29T00:09:18.574Z,96.2
2019-05-29T00:12:21.354Z,96.7
2019-05-29T00:14:27.852Z,96.4
2019-05-29T00:15:24.207Z,96.3
2019-05-29T00:16:25.598Z,96.3
2019-05-29T00:18:28.132Z,96.5
2019-05-29T00:20:30.658Z,96.2
2019-05-29T00:22:33.284Z,96.2
2019-05-29T00:24:35.816Z,96.4
2019-05-29T00:27:39.633Z,96.2
2019-05-29T00:28:41.026Z,96.2
2019-05-29T00:29:42.435Z,96.5
2019-05-29T00:30:43.835Z,96.1
2019-05-29T00:31:45.228Z,96
2019-05-29T00:32:46.010Z,96.1
2019-05-29T00:35:49.678Z,96.2
2019-05-29T00:36:51.073Z,96.1
2019-05-29T00:37:52.466Z,96
2019-05-29T00:38:53.856Z,96.1
2019-05-29T00:39:55.269Z,96.2
2019-05-29T00:41:57.789Z,96.2
2019-05-29T00:42:58.549Z,96.3
2019-05-29T00:43:59.948Z,96.2
2019-05-29T00:45:01.373Z,96
2019-05-29T00:48:04.756Z,96.4
2019-05-29T00:50:08.165Z,96.4
2019-05-29T00:51:09.050Z,96.3
2019-05-29T00:52:10.149Z,96.4
2019-05-29T00:54:12.634Z,96.3
2019-05-29T00:55:12.716Z,96.6
2019-05-29T00:56:14.792Z,96.4
2019-05-29T00:57:15.464Z,96.5
2019-05-29T01:03:20.901Z,96.3
2019-05-29T01:04:22.299Z,96.2
2019-05-29T01:06:24.836Z,96.3
2019-05-29T01:07:26.224Z,96.2
2019-05-29T01:08:27.622Z,96.1
2019-05-29T01:09:29.038Z,96.3
2019-05-29T01:10:30.445Z,96.4
2019-05-29T01:11:31.844Z,96.4
2019-05-29T01:12:33.235Z,96.3
2019-05-29T01:14:50.654Z,96.3
2019-05-29T01:15:36.012Z,96.2
2019-05-29T01:16:37.413Z,96.2
2019-05-29T01:17:38.807Z,96.5
2019-05-29T01:18:40.211Z,96.3
2019-05-29T01:20:42.748Z,96.2
2019-05-29T01:21:44.173Z,96.3
2019-05-29T01:22:45.563Z,96.2
2019-05-29T01:23:46.336Z,96.3
2019-05-29T01:24:47.732Z,96.3
2019-05-29T01:30:54.842Z,96.2
2019-05-29T01:33:57.862Z,96.2
2019-05-29T01:34:59.263Z,96.2
2019-05-29T01:37:01.994Z,96.3
2019-05-29T01:38:03.383Z,96.1
2019-05-29T01:39:04.775Z,96
2019-05-29T01:40:25.047Z,96
2019-05-29T01:41:07.397Z,96.1
2019-05-29T01:42:08.797Z,96.3
2019-05-29T01:44:09.907Z,96.1
2019-05-29T01:45:10.532Z,96.3
2019-05-29T01:46:11.949Z,96.4
2019-05-29T01:47:13.443Z,96.3
2019-05-29T01:49:17.790Z,96.4
2019-05-29T01:50:17.884Z,96.5
2019-05-29T01:52:19.788Z,96.4
2019-05-29T01:53:20.175Z,96.3
2019-05-29T01:54:21.805Z,96.2
2019-05-29T01:56:24.030Z,96.3
2019-05-29T01:57:24.415Z,96.5
2019-05-29T01:58:25.813Z,96.6
2019-05-29T01:59:28.239Z,96.6
2019-05-29T02:00:28.709Z,96.5
2019-05-29T02:02:31.449Z,96.3
2019-05-29T02:03:31.827Z,96.5
2019-05-29T02:04:32.587Z,96.4
2019-05-29T02:05:33.983Z,96.3
2019-05-29T02:06:35.409Z,96.4
2019-05-29T02:08:37.934Z,96.2
2019-05-29T02:12:42.745Z,96.4
2019-05-29T02:13:44.135Z,96.3
2019-05-29T02:14:44.736Z,96.4
2019-05-29T02:17:48.420Z,96.3
2019-05-29T02:18:49.816Z,96.2
2019-05-29T02:19:51.214Z,96.6
2019-05-29T02:20:52.606Z,96.5
2019-05-29T02:21:54.031Z,96.3
2019-05-29T02:22:55.429Z,96.2
2019-05-29T02:23:56.821Z,96.4
2019-05-29T02:24:57.586Z,96.6
2019-05-29T02:25:58.987Z,96.5
2019-05-29T02:27:00.414Z,96.6
2019-05-29T02:28:01.804Z,96.6
2019-05-29T02:29:03.197Z,96.6
2019-05-29T02:30:04.596Z,96.7
2019-05-29T02:31:05.281Z,96.6
2019-05-29T02:32:06.695Z,96.5
2019-05-29T02:33:08.098Z,96.6
2019-05-29T02:34:09.488Z,96.6
2019-05-29T02:37:11.968Z,96.6
2019-05-29T02:39:14.027Z,96.4
2019-05-29T02:40:14.666Z,96.3
2019-05-29T02:41:15.959Z,96.4
2019-05-29T02:42:16.751Z,96.4
2019-05-29T02:43:21.240Z,96.3
2019-05-29T02:45:23.799Z,96.6
2019-05-29T02:46:23.811Z,96.5
2019-05-29T02:50:28.770Z,96.5
2019-05-29T02:51:29.874Z,96.5
2019-05-29T02:53:30.781Z,97
2019-05-29T02:54:32.528Z,96.6
2019-05-29T02:55:31.268Z,96.4
2019-05-29T02:56:32.656Z,96.5
2019-05-29T02:57:33.590Z,96.7
2019-05-29T02:58:35.003Z,96.6
2019-05-29T02:59:36.415Z,96.5
2019-05-29T03:00:37.795Z,96.6
2019-05-29T03:01:39.185Z,96.7
2019-05-29T03:02:40.589Z,96.5
2019-05-29T03:03:42.010Z,96.5
2019-05-29T03:04:43.396Z,96.4
2019-05-29T03:05:43.663Z,96.6
2019-05-29T03:06:45.057Z,96.5
2019-05-29T03:07:46.452Z,96.5
2019-05-29T03:11:51.270Z,96.5
2019-05-29T03:12:52.291Z,96.6
2019-05-29T03:13:53.700Z,96.6
2019-05-29T03:14:55.101Z,96.6
2019-05-29T03:16:12.324Z,96.5
2019-05-29T03:16:56.917Z,96.4
2019-05-29T03:17:58.324Z,96.6
2019-05-29T03:20:00.887Z,96.3
2019-05-29T03:21:02.278Z,96.4
2019-05-29T03:22:03.679Z,96.4
2019-05-29T03:24:06.224Z,96.5
2019-05-29T03:25:07.617Z,96.5
2019-05-29T03:33:16.326Z,96.3
2019-05-29T03:34:17.725Z,96.3
2019-05-29T03:35:19.125Z,96.2
2019-05-29T03:36:20.051Z,96.3
2019-05-29T03:40:23.275Z,96.5
2019-05-29T03:41:24.096Z,96.4
2019-05-29T03:42:28.178Z,96.4
2019-05-29T03:45:33.885Z,96.6
2019-05-29T03:49:28.989Z,96.5
2019-05-29T03:52:32.505Z,96.5
2019-05-29T03:53:33.727Z,96.3
2019-05-29T03:54:35.298Z,96.5
2019-05-29T03:55:34.335Z,96.6
2019-05-29T03:56:34.943Z,96.4
2019-05-29T03:57:36.314Z,96.5
2019-05-29T03:58:37.689Z,96.6
2019-05-29T03:59:37.592Z,96.5
2019-05-29T04:00:48.414Z,96.5
2019-05-29T04:01:38.027Z,96.5
2019-05-29T04:02:42.021Z,96.3
2019-05-29T04:03:40.346Z,96.4
2019-05-29T04:05:42.903Z,96.8
2019-05-29T04:06:47.680Z,96.5
2019-05-29T04:07:45.055Z,96.5
2019-05-29T04:08:46.442Z,96.7
2019-05-29T04:11:49.486Z,96.7
2019-05-29T04:12:50.888Z,96.8
2019-05-29T04:13:52.285Z,97
2019-05-29T04:14:53.695Z,97.1
2019-05-29T04:15:55.079Z,96.7
2019-05-29T04:19:59.718Z,96.9
2019-05-29T04:24:04.508Z,96.8
2019-05-29T04:25:05.927Z,96.9
2019-05-29T04:26:07.364Z,96.9
2019-05-29T04:27:08.757Z,96.7
2019-05-29T04:28:10.162Z,96.6
2019-05-29T04:29:11.546Z,96.8
2019-05-29T04:30:12.537Z,96.6
2019-05-29T04:31:13.118Z,96.6
2019-05-29T04:35:17.941Z,96.7
2019-05-29T04:36:19.323Z,96.5
2019-05-29T04:37:20.726Z,96.5
2019-05-29T04:38:22.111Z,96.5
2019-05-29T04:39:22.927Z,96.6
2019-05-29T04:41:24.635Z,96.5
2019-05-29T04:42:26.046Z,96.6
2019-05-29T04:43:26.709Z,96.5
2019-05-29T04:44:33.252Z,96.5
2019-05-29T04:45:30.982Z,96.6
2019-05-29T04:46:31.889Z,96.7
2019-05-29T04:47:36.875Z,96.6
2019-05-29T04:48:37.708Z,96.5
2019-05-29T04:49:37.853Z,96.5
2019-05-29T04:51:37.568Z,96.6
2019-05-29T04:52:40.145Z,96.5
2019-05-29T04:53:40.114Z,96.4
2019-05-29T04:54:40.410Z,96.4
2019-05-29T04:55:40.793Z,96.4
2019-05-29T04:56:42.206Z,96.2
2019-05-29T04:57:43.602Z,96.4
2019-05-29T04:58:44.190Z,96.5
2019-05-29T04:59:45.576Z,96.4
2019-05-29T05:00:59.672Z,96.4
2019-05-29T05:01:46.970Z,96.5
2019-05-29T05:02:48.377Z,96.5
2019-05-29T05:04:50.925Z,96.4
2019-05-29T05:05:52.324Z,96.4
2019-05-29T05:06:53.734Z,96.4
2019-05-29T05:07:55.128Z,96.4
2019-05-29T05:08:56.598Z,96.5
2019-05-29T05:09:57.979Z,96.6
2019-05-29T05:13:01.018Z,96.5
2019-05-29T05:14:02.404Z,96.4
2019-05-29T05:15:03.808Z,96.5
2019-05-29T05:16:05.193Z,96.8
2019-05-29T05:17:06.611Z,96.8
2019-05-29T05:18:07.473Z,96.6
2019-05-29T05:19:08.875Z,96.4
2019-05-29T05:20:10.039Z,96.6
2019-05-29T05:23:13.081Z,96.4
2019-05-29T05:24:14.481Z,96.4
2019-05-29T05:25:15.878Z,96.3
2019-05-29T05:27:18.427Z,96.3
2019-05-29T05:28:19.821Z,96.2
2019-05-29T05:29:21.218Z,96.3
2019-05-29T05:30:22.622Z,96.2
2019-05-29T05:31:23.375Z,96.2
2019-05-29T05:32:24.780Z,96.4
2019-05-29T05:35:27.867Z,96.4
2019-05-29T05:38:31.010Z,96.6
2019-05-29T05:39:32.931Z,96.5
2019-05-29T05:40:41.111Z,96.5
2019-05-29T05:41:33.483Z,96.6
2019-05-29T05:42:34.995Z,96.9
2019-05-29T05:45:39.110Z,96.7
2019-05-29T05:46:39.341Z,96.7
2019-05-29T05:47:57.644Z,96.8
2019-05-29T05:48:41.835Z,96.8
2019-05-29T05:49:42.193Z,96.8
2019-05-29T05:55:48.623Z,96.7
2019-05-29T05:56:53.886Z,96.5
2019-05-29T05:57:51.281Z,96.6
2019-05-29T05:58:53.147Z,96.5
2019-05-29T05:59:53.536Z,96.5
2019-05-29T06:00:54.921Z,96.4
2019-05-29T06:01:55.794Z,96.3
2019-05-29T06:09:04.012Z,96.4
2019-05-29T06:10:05.410Z,96.6
2019-05-29T06:11:06.799Z,96.6
2019-05-29T06:12:07.688Z,96.2
2019-05-29T06:13:09.075Z,96.4
2019-05-29T06:14:10.505Z,96.5
2019-05-29T06:15:11.894Z,96.7
2019-05-29T06:16:13.311Z,96.5
2019-05-29T06:18:22.133Z,96.8
2019-05-29T06:20:18.603Z,96.9
2019-05-29T06:21:19.999Z,96.5
2019-05-29T06:22:20.759Z,96.6
2019-05-29T06:23:22.184Z,96.7
2019-05-29T06:24:23.578Z,96.6
2019-05-29T06:25:24.971Z,96.6
2019-05-29T06:26:32.947Z,96.5
2019-05-29T06:27:27.159Z,96.6
2019-05-29T06:28:27.882Z,96.6
2019-05-29T06:30:30.411Z,96.4
2019-05-29T06:32:31.725Z,96.7
2019-05-29T06:33:33.558Z,96.5
2019-05-29T06:34:33.667Z,96.5
2019-05-29T06:35:37.479Z,96.4
2019-05-29T06:38:38.014Z,96.5
2019-05-29T06:39:39.743Z,96.6
2019-05-29T06:40:41.950Z,96.8
2019-05-29T06:41:42.210Z,96.5
2019-05-29T06:42:42.101Z,96.6
2019-05-29T06:43:42.517Z,96.5
2019-05-29T06:44:49.394Z,96.5
2019-05-29T06:45:45.086Z,96.5
2019-05-29T06:46:46.485Z,96.8
2019-05-29T06:47:47.878Z,96.2
2019-05-29T06:49:01.079Z,96.3
2019-05-29T06:49:52.495Z,96.3
2019-05-29T06:50:56.434Z,96.3
2019-05-29T06:52:52.924Z,96.2
2019-05-29T06:53:54.336Z,96.4
2019-05-29T06:56:58.077Z,96.2
2019-05-29T06:57:59.478Z,96.3
2019-05-29T06:59:01.128Z,96.4
2019-05-29T07:00:01.555Z,96.5
2019-05-29T07:03:04.643Z,96.3
2019-05-29T07:04:12.640Z,96.3
2019-05-29T07:05:07.002Z,96.3
2019-05-29T07:06:08.593Z,96.3
2019-05-29T07:07:08.981Z,96.3
2019-05-29T07:08:35.146Z,96.2
2019-05-29T07:09:11.558Z,96.1
2019-05-29T07:13:15.721Z,96.3
2019-05-29T07:14:17.121Z,96.4
2019-05-29T07:17:20.208Z,96.4
2019-05-29T07:18:21.701Z,96.2
2019-05-29T07:19:47.382Z,96.3
2019-05-29T07:20:24.308Z,96.4
2019-05-29T07:21:25.900Z,96.3
2019-05-29T07:22:26.301Z,96.6
2019-05-29T07:23:27.052Z,96.3
2019-05-29T07:24:28.480Z,96.3
2019-05-29T07:25:29.871Z,96.7
2019-05-29T07:26:31.268Z,96.2
2019-05-29T07:27:32.082Z,96.5
2019-05-29T07:30:35.201Z,96.4
2019-05-29T07:33:39.066Z,96.2
2019-05-29T07:35:03.432Z,96.1
2019-05-29T07:35:41.319Z,95.6
2019-05-29T07:36:42.105Z,96.1
2019-05-29T07:40:49.427Z,96.2
2019-05-29T07:48:52.767Z,96.6
2019-05-29T07:49:54.162Z,96.1
2019-05-29T07:51:56.342Z,96.2
2019-05-29T07:52:57.820Z,96.3
2019-05-29T07:53:58.576Z,96.6
2019-05-29T07:54:59.978Z,96.3
2019-05-29T07:56:01.422Z,96.5
2019-05-29T07:59:04.916Z,96.7
2019-05-29T08:00:06.311Z,96.4
2019-05-29T08:04:11.404Z,96.6
2019-05-29T08:05:12.797Z,96.5
2019-05-29T08:07:15.355Z,96.3
2019-05-29T08:08:16.751Z,96.3
2019-05-29T08:09:18.142Z,96.2
2019-05-29T08:12:21.840Z,95.9
2019-05-29T08:13:23.248Z,95.6
2019-05-29T08:14:24.038Z,95.7
2019-05-29T08:17:27.756Z,96.1
2019-05-29T08:18:29.164Z,96.3
2019-05-29T08:19:30.560Z,96.2
2019-05-29T08:20:31.951Z,96.3
2019-05-29T08:21:33.370Z,96.3
2019-05-29T08:22:35.183Z,96.3
2019-05-29T08:23:35.574Z,96.5
2019-05-29T08:24:36.334Z,96.8
2019-05-29T08:25:37.826Z,96.4
2019-05-29T08:27:40.706Z,96.8
2019-05-29T08:28:40.819Z,96.3
2019-05-29T08:29:42.712Z,96.5
2019-05-29T08:30:55.588Z,96.6
2019-05-29T08:31:44.876Z,96.4
2019-05-29T08:32:45.517Z,96.1
2019-05-29T08:33:46.926Z,96.2
2019-05-29T08:37:51.324Z,95.8
2019-05-29T08:40:53.972Z,96.4
2019-05-29T08:42:23.475Z,95.9
2019-05-29T08:42:55.910Z,96
2019-05-29T08:43:57.308Z,96
2019-05-29T08:44:58.068Z,96.4
2019-05-29T08:45:59.463Z,96.4
2019-05-29T08:47:11.097Z,96.4
2019-05-29T08:48:01.448Z,96.4
2019-05-29T08:50:19.221Z,96.3
2019-05-29T08:53:06.701Z,96.2
2019-05-29T08:54:24.403Z,96.3
2019-05-29T08:56:10.221Z,97
2019-05-29T08:58:13.776Z,96.5
2019-05-29T08:59:14.206Z,96.7
2019-05-29T09:00:15.592Z,96.6
2019-05-29T09:01:16.987Z,96.3
2019-05-29T09:02:18.407Z,96.7
2019-05-29T09:03:19.804Z,96.4
2019-05-29T09:05:21.712Z,96.3
2019-05-29T09:06:23.101Z,96.2
2019-05-29T09:08:25.660Z,96.3
2019-05-29T09:09:27.063Z,96
2019-05-29T09:10:28.452Z,95.5
2019-05-29T09:13:31.526Z,95.8
2019-05-29T09:14:32.926Z,95.6
2019-05-29T09:21:39.949Z,95.8
2019-05-29T09:22:41.386Z,95.7
2019-05-29T09:23:42.764Z,95.5
2019-05-29T09:24:44.160Z,95.1
2019-05-29T09:25:45.171Z,95.3
2019-05-29T09:26:46.846Z,95.1
2019-05-29T09:27:47.250Z,95.9
2019-05-29T09:28:48.670Z,95.6
2019-05-29T09:30:51.190Z,95.4
2019-05-29T09:32:53.738Z,94.8
2019-05-29T09:33:55.132Z,95
2019-05-29T09:34:56.527Z,94.9
2019-05-29T09:35:57.392Z,95.2
2019-05-29T09:36:59.065Z,94.7
2019-05-29T09:37:59.561Z,95.4
2019-05-29T09:39:00.949Z,95
2019-05-29T09:41:03.476Z,94.9
2019-05-29T09:42:04.877Z,94.7
2019-05-29T09:43:06.305Z,94.9
2019-05-29T09:44:07.703Z,94.6
2019-05-29T09:45:08.215Z,94.9
2019-05-29T09:46:08.965Z,94.7
2019-05-29T09:47:09.511Z,95
2019-05-29T09:48:10.991Z,94.7
2019-05-29T09:49:11.788Z,95.1
2019-05-29T09:50:12.511Z,94.8
2019-05-29T09:51:22.032Z,94.5
2019-05-29T09:52:14.551Z,94.6
2019-05-29T09:54:17.173Z,94.9
2019-05-29T09:55:17.673Z,94.9
2019-05-29T09:56:18.819Z,94.4
2019-05-29T09:57:20.220Z,94.4
2019-05-29T09:58:21.687Z,94.2
2019-05-29T09:59:23.119Z,94.2
2019-05-29T10:00:24.515Z,94.4
2019-05-29T10:01:26.129Z,94.6
2019-05-29T10:02:26.498Z,94
2019-05-29T10:04:29.060Z,94.2
2019-05-29T10:05:30.453Z,93.9
2019-05-29T10:06:31.567Z,93.6
2019-05-29T10:07:32.964Z,93.7
2019-05-29T10:08:34.363Z,93.9
2019-05-29T10:09:35.781Z,94.1
2019-05-29T10:10:37.179Z,94.5
2019-05-29T10:11:38.567Z,94.5
2019-05-29T10:12:40.015Z,94.4
2019-05-29T10:13:41.387Z,94.6
2019-05-29T10:14:42.788Z,94
2019-05-29T10:15:43.471Z,93.9
2019-05-29T10:16:44.249Z,94.3
2019-05-29T10:17:45.656Z,94.3
2019-05-29T10:21:50.601Z,94.6
2019-05-29T10:23:53.349Z,94.8
2019-05-29T10:24:57.934Z,94.7
2019-05-29T10:25:59.995Z,95.1
2019-05-29T10:26:59.061Z,94.8
2019-05-29T10:27:56.965Z,94.8
2019-05-29T10:29:09.702Z,94.5
2019-05-29T10:29:59.107Z,94.9
2019-05-29T10:31:05.005Z,94.5
2019-05-29T10:32:01.672Z,94.5
2019-05-29T10:33:03.059Z,94.5
2019-05-29T10:34:04.488Z,94.6
2019-05-29T10:35:05.878Z,94.8
2019-05-29T10:36:07.275Z,95.3
2019-05-29T10:37:08.304Z,95.5
2019-05-29T10:39:13.240Z,95.4
2019-05-29T10:42:13.831Z,95.1
2019-05-29T10:43:14.927Z,95.1
2019-05-29T10:44:16.086Z,94.8
2019-05-29T10:45:17.483Z,94.8
2019-05-29T10:46:18.893Z,94.8
2019-05-29T10:47:19.657Z,95.1
2019-05-29T10:48:21.051Z,94.6
2019-05-29T10:49:22.507Z,94.5
2019-05-29T10:50:23.977Z,94.7
2019-05-29T10:51:25.394Z,95
2019-05-29T10:52:26.030Z,94.9
2019-05-29T10:53:27.423Z,94.6
2019-05-29T10:54:28.841Z,94.9
2019-05-29T10:57:31.908Z,94.5
2019-05-29T10:58:54.242Z,94.9
2019-05-29T10:59:34.330Z,94.9
2019-05-29T11:00:39.819Z,94.7
2019-05-29T11:01:36.555Z,94.6
2019-05-29T11:03:39.090Z,94.7
2019-05-29T11:04:39.682Z,95.6
2019-05-29T11:05:40.582Z,95.3
2019-05-29T11:06:41.974Z,95.7
2019-05-29T11:07:42.596Z,95.2
2019-05-29T11:08:43.992Z,96.2
2019-05-29T11:09:48.425Z,95.9
2019-05-29T11:10:46.446Z,94.8
2019-05-29T11:11:48.619Z,95
2019-05-29T11:12:48.565Z,95
2019-05-29T11:13:48.848Z,95.3
2019-05-29T11:14:50.901Z,94.9
2019-05-29T11:15:51.151Z,95.3
2019-05-29T11:16:53.501Z,95.1
2019-05-29T11:17:53.407Z,95.5
2019-05-29T11:18:53.792Z,95.3
2019-05-29T11:19:55.767Z,95.3
2019-05-29T11:20:56.153Z,95.2
2019-05-29T11:22:25.032Z,95.7
2019-05-29T11:26:01.750Z,95
2019-05-29T11:27:03.055Z,94.7
2019-05-29T11:28:03.825Z,94.8
2019-05-29T11:29:05.228Z,95.1
2019-05-29T11:30:05.806Z,95.4
2019-05-29T11:31:06.682Z,94.9
2019-05-29T11:32:08.102Z,94.5
2019-05-29T11:33:09.464Z,94.7
2019-05-29T11:34:10.193Z,94.9
2019-05-29T11:38:14.544Z,94.7
2019-05-29T11:39:15.948Z,94.7
2019-05-29T11:40:17.376Z,94.5
2019-05-29T11:41:26.971Z,94.6
2019-05-29T11:42:28.313Z,94.8
2019-05-29T11:44:21.840Z,94.6
2019-05-29T11:45:23.224Z,94.2
2019-05-29T11:46:24.664Z,94
2019-05-29T11:47:26.068Z,94.1
2019-05-29T11:48:27.282Z,94.3
2019-05-29T11:49:28.684Z,94.4
2019-05-29T11:50:30.112Z,94.3
2019-05-29T11:51:31.540Z,94.5
2019-05-29T11:53:33.975Z,94.3
2019-05-29T11:54:35.365Z,94.3
2019-05-29T11:55:36.786Z,94.2
2019-05-29T11:58:39.538Z,94.8
2019-05-29T11:59:40.986Z,94.8
2019-05-29T12:00:42.384Z,93.7
2019-05-29T12:01:52.185Z,95.3
2019-05-29T12:02:44.503Z,95.2
2019-05-29T12:04:25.346Z,95.3
2019-05-29T12:05:47.353Z,95.1
2019-05-29T12:06:48.712Z,95
2019-05-29T12:07:49.459Z,94.6
2019-05-29T12:10:53.268Z,94.4
2019-05-29T12:12:53.566Z,95.1
2019-05-29T12:15:13.986Z,94.4
2019-05-29T12:15:56.156Z,94.7
2019-05-29T12:16:56.194Z,94.3
2019-05-29T12:23:26.635Z,94.3
2019-05-29T12:23:56.308Z,94.4
2019-05-29T12:24:58.715Z,94.2
2019-05-29T12:26:22.544Z,94.7
2019-05-29T12:29:11.991Z,94.8
2019-05-29T12:30:03.423Z,94.5
2019-05-29T12:31:03.809Z,94.8
2019-05-29T12:32:11.845Z,94.6
2019-05-29T12:35:08.200Z,95.3
2019-05-29T12:37:10.763Z,94.7
2019-05-29T12:38:12.157Z,95
2019-05-29T12:39:13.552Z,94.8
2019-05-29T12:40:14.952Z,94.8
2019-05-29T12:41:16.375Z,94.9
2019-05-29T12:42:17.406Z,94.7
2019-05-29T12:43:28.252Z,94.7
2019-05-29T12:44:19.574Z,94.5
2019-05-29T12:45:20.973Z,94.5
2019-05-29T12:46:22.391Z,94.4
2019-05-29T12:47:23.788Z,94.6
2019-05-29T12:48:25.194Z,94.2
2019-05-29T12:50:27.708Z,94.2
2019-05-29T12:52:29.420Z,94.1
2019-05-29T12:54:31.947Z,94.4
2019-05-29T12:55:33.348Z,94.6
2019-05-29T12:57:35.893Z,95
2019-05-29T12:58:37.295Z,94.8
2019-05-29T12:59:38.713Z,94.6
2019-05-29T13:00:39.323Z,94.9
2019-05-29T13:02:41.276Z,94.8
2019-05-29T13:03:46.010Z,95.1
2019-05-29T13:05:13.671Z,95.3
2019-05-29T13:05:44.312Z,95.4
2019-05-29T13:06:45.726Z,95.4
2019-05-29T13:07:47.139Z,95.6
2019-05-29T13:08:48.532Z,95.5
2019-05-29T13:09:49.760Z,95.4
2019-05-29T13:10:50.782Z,95.5
2019-05-29T13:11:51.381Z,95.3
2019-05-29T13:12:52.528Z,95.3
2019-05-29T13:13:54.190Z,95.3
2019-05-29T13:16:56.830Z,95.1
2019-05-29T13:18:09.172Z,95.1
2019-05-29T13:18:59.330Z,95.5
2019-05-29T13:20:20.912Z,95.9
2019-05-29T13:21:01.113Z,96
2019-05-29T13:22:01.829Z,96.2
2019-05-29T13:23:07.194Z,96.3
2019-05-29T13:24:11.180Z,96.1
2019-05-29T13:25:05.649Z,96.2
2019-05-29T13:26:06.439Z,96.2
2019-05-29T13:27:07.846Z,96.2
2019-05-29T13:28:09.247Z,96
2019-05-29T13:29:10.653Z,95.9
2019-05-29T13:30:12.039Z,95.7
2019-05-29T13:31:13.440Z,95.8
2019-05-29T13:32:14.862Z,96.2
2019-05-29T13:33:15.738Z,96.1
2019-05-29T13:34:17.127Z,96.3
2019-05-29T13:35:22.629Z,95.9
2019-05-29T13:37:21.145Z,95.9
2019-05-29T13:38:22.547Z,95.8
2019-05-29T13:39:23.942Z,95.7
2019-05-29T13:40:25.188Z,95.9
2019-05-29T13:42:27.729Z,95.7
2019-05-29T13:43:28.773Z,95.4
2019-05-29T13:44:30.203Z,95.5
2019-05-29T13:45:31.597Z,95.7
2019-05-29T13:46:32.994Z,95.4
2019-05-29T13:48:34.756Z,95.9
2019-05-29T13:49:36.157Z,95.8
2019-05-29T13:50:37.573Z,96
2019-05-29T13:53:40.674Z,96
2019-05-29T13:54:41.572Z,95.7
2019-05-29T13:56:44.123Z,95.9
2019-05-29T13:57:44.649Z,96.1
2019-05-29T14:01:49.461Z,96.4
2019-05-29T14:02:50.882Z,96.2
2019-05-29T14:03:51.772Z,96
2019-05-29T14:04:52.314Z,96.1
2019-05-29T14:06:54.897Z,96.1
2019-05-29T14:07:55.522Z,95.9
2019-05-29T14:08:56.969Z,96.1
2019-05-29T14:09:59.128Z,96.2
2019-05-29T14:10:59.335Z,96
2019-05-29T14:13:01.487Z,96.1
2019-05-29T14:14:07.347Z,96.1
2019-05-29T14:15:04.591Z,96.2
2019-05-29T14:16:04.352Z,96.1
2019-05-29T14:17:04.769Z,96.4
2019-05-29T14:18:08.763Z,96.2
2019-05-29T14:19:07.363Z,96.5
2019-05-29T14:21:09.903Z,96.5
2019-05-29T14:22:11.286Z,96.7
2019-05-29T14:23:12.722Z,96.7
2019-05-29T14:24:29.771Z,96.7
2019-05-29T14:25:14.359Z,96.7
2019-05-29T14:26:15.779Z,96.7
2019-05-29T14:27:17.177Z,96.7
2019-05-29T14:28:18.606Z,96.8
2019-05-29T14:30:21.139Z,96.7
2019-05-29T14:31:22.525Z,96.7
2019-05-29T14:32:28.817Z,96.7
2019-05-29T14:33:25.237Z,96.8
2019-05-29T14:34:26.096Z,96.7
2019-05-29T14:35:27.491Z,96.7
2019-05-29T14:36:28.975Z,96.6
2019-05-29T14:37:30.377Z,96.7
2019-05-29T14:38:31.807Z,96.7
2019-05-29T14:39:33.203Z,97
2019-05-29T14:40:34.607Z,96.8
2019-05-29T14:41:36.007Z,96.8
2019-05-29T14:43:38.545Z,96.7
2019-05-29T14:44:39.216Z,96.7
2019-05-29T14:45:40.609Z,96.7
2019-05-29T14:46:42.003Z,97
2019-05-29T14:47:43.409Z,97.1
2019-05-29T14:48:44.999Z,96.8
2019-05-29T14:49:45.395Z,96.9
2019-05-29T14:52:49.234Z,97
2019-05-29T14:53:50.641Z,96.8
2019-05-29T14:54:51.463Z,97
2019-05-29T14:55:52.887Z,97.2
2019-05-29T14:56:54.298Z,96.9
2019-05-29T14:57:55.817Z,96.9
2019-05-29T14:59:58.480Z,96.5
2019-05-29T15:00:59.680Z,97
2019-05-29T15:02:01.179Z,96.5
2019-05-29T15:03:05.260Z,96.8
2019-05-29T15:04:03.774Z,96.6
2019-05-29T15:07:05.923Z,96.7
2019-05-29T15:08:08.216Z,96.7
2019-05-29T15:09:09.363Z,96.3
2019-05-29T15:11:10.215Z,96.5
2019-05-29T15:14:14.327Z,96.6
2019-05-29T15:15:16.914Z,96.1
2019-05-29T15:16:15.301Z,96.2
2019-05-29T15:17:16.697Z,96
2019-05-29T15:18:19.452Z,95.7
2019-05-29T15:19:18.830Z,96
2019-05-29T15:20:19.372Z,95.8
2019-05-29T15:21:20.805Z,96.2
2019-05-29T15:22:22.187Z,96.2
2019-05-29T15:27:21.085Z,96
2019-05-29T15:28:21.843Z,96
2019-05-29T15:29:23.358Z,95.9
2019-05-29T15:30:24.932Z,96.3
2019-05-29T15:31:25.318Z,95.9
2019-05-29T15:35:30.146Z,95.4
2019-05-29T15:36:31.539Z,95.5
2019-05-29T15:37:32.958Z,95.7
2019-05-29T15:38:33.804Z,95.2
2019-05-29T15:39:36.281Z,95.3
2019-05-29T15:40:36.683Z,95.4
2019-05-29T15:41:38.066Z,95.5
2019-05-29T15:42:39.451Z,95.8
2019-05-29T15:43:40.855Z,95.6
2019-05-29T15:45:42.909Z,94.9
2019-05-29T15:46:43.326Z,95.6
2019-05-29T15:47:44.712Z,94.9
2019-05-29T15:51:48.907Z,95.5
2019-05-29T15:52:50.305Z,95.6
2019-05-29T15:53:51.696Z,95.3
2019-05-29T15:55:54.261Z,94.9
2019-05-29T15:56:54.731Z,95
2019-05-29T15:57:56.135Z,94.2
2019-05-29T15:58:56.918Z,94.1
2019-05-29T15:59:58.309Z,94.3
2019-05-29T16:00:59.731Z,93.4
2019-05-29T16:02:01.128Z,93.7
2019-05-29T16:03:02.620Z,93.3
2019-05-29T16:05:04.860Z,93.5
2019-05-29T16:06:05.396Z,94.1
2019-05-29T16:07:06.061Z,93.7
2019-05-29T16:08:08.104Z,93.9
2019-05-29T16:09:08.307Z,93.8
2019-05-29T16:10:08.518Z,93.9
2019-05-29T16:11:10.711Z,94.1
2019-05-29T16:12:10.984Z,94.1
2019-05-29T16:13:12.999Z,94.2
2019-05-29T16:14:13.251Z,94.2
2019-05-29T16:15:17.176Z,94.2
2019-05-29T16:16:15.712Z,94.1
2019-05-29T16:17:17.455Z,93.3
2019-05-29T16:18:29.610Z,93.4
2019-05-29T16:19:18.500Z,93.6
2019-05-29T16:24:23.208Z,93.3
2019-05-29T16:25:40.713Z,93.4
2019-05-29T16:26:26.031Z,93.6
2019-05-29T16:29:28.052Z,94
2019-05-29T16:30:29.496Z,94.3
2019-05-29T16:31:30.905Z,94.4
2019-05-29T16:35:37.798Z,94.3
2019-05-29T16:36:37.160Z,94.5
2019-05-29T16:37:38.546Z,94.5
2019-05-29T16:38:39.951Z,94.5
2019-05-29T16:41:42.736Z,94.4
2019-05-29T16:42:44.130Z,94.5
2019-05-29T16:43:45.566Z,94.6
2019-05-29T16:44:46.952Z,94.8
2019-05-29T16:45:48.390Z,95.1
2019-05-29T16:46:49.787Z,95.3
2019-05-29T16:47:51.367Z,95.4
2019-05-29T16:48:51.742Z,95.5
2019-05-29T16:49:52.526Z,95.7
2019-05-29T16:50:53.945Z,96
2019-05-29T16:51:55.357Z,96.1
2019-05-29T16:52:56.747Z,96.1
2019-05-29T16:53:58.145Z,96.1
2019-05-29T16:54:59.563Z,96.1
2019-05-29T16:57:01.276Z,96
2019-05-29T16:58:02.668Z,95.9
2019-05-29T16:59:04.074Z,95.8
2019-05-29T17:02:07.113Z,95.9
2019-05-29T17:04:08.656Z,95.9
2019-05-29T17:05:10.056Z,95.5
2019-05-29T17:06:11.062Z,95.7
2019-05-29T17:07:13.977Z,95.5
2019-05-29T17:08:14.199Z,95.5
2019-05-29T17:09:14.676Z,95.3
2019-05-29T17:10:16.162Z,95.3
2019-05-29T17:11:16.528Z,95.3
2019-05-29T17:13:18.829Z,95
2019-05-29T17:14:18.990Z,95
2019-05-29T17:15:20.696Z,95.2
2019-05-29T17:16:21.117Z,95.3
2019-05-29T17:20:25.658Z,96
2019-05-29T17:21:27.082Z,96
2019-05-29T17:26:33.026Z,96.1
2019-05-29T17:27:34.421Z,96.1
2019-05-29T17:28:35.816Z,96
2019-05-29T17:29:37.216Z,96.1
2019-05-29T17:30:41.534Z,96
2019-05-29T17:31:38.664Z,96
2019-05-29T17:33:41.190Z,95.8
2019-05-29T17:34:42.580Z,95.9
2019-05-29T17:35:43.978Z,95.8
2019-05-29T17:40:49.280Z,95.8
2019-05-29T17:41:50.720Z,95.8
2019-05-29T17:42:52.114Z,95.7
2019-05-29T17:43:53.512Z,95.8
2019-05-29T17:44:54.943Z,95.9
2019-05-29T17:45:56.332Z,95.9
2019-05-29T17:46:57.732Z,96
2019-05-29T17:47:58.424Z,96.2
2019-05-29T17:54:04.874Z,96
2019-05-29T17:55:06.517Z,96.1
2019-05-29T17:57:11.530Z,96.1
2019-05-29T17:58:09.390Z,96
2019-05-29T18:00:12.124Z,96
2019-05-29T18:01:12.564Z,96.2
2019-05-29T18:02:13.422Z,96.1
2019-05-29T18:03:16.149Z,96.1
2019-05-29T18:04:16.328Z,96.2
2019-05-29T18:05:18.594Z,96.4
2019-05-29T18:06:20.167Z,96.4
2019-05-29T18:07:20.786Z,96.7
2019-05-29T18:09:28.771Z,96.3
2019-05-29T18:11:25.336Z,96.2
2019-05-29T18:12:25.232Z,96.3
2019-05-29T18:13:25.626Z,96.4
2019-05-29T18:14:27.745Z,96.4
2019-05-29T18:15:28.126Z,96.2
2019-05-29T18:18:31.827Z,96.2
2019-05-29T18:19:33.199Z,96.2
2019-05-29T18:20:34.596Z,96.1
2019-05-29T18:21:35.358Z,96.2
2019-05-29T18:22:36.791Z,96
2019-05-29T18:23:38.182Z,96.1
2019-05-29T18:24:39.587Z,96.1
2019-05-29T18:25:40.966Z,95.9
2019-05-29T18:26:47.645Z,96.1
2019-05-29T18:27:43.008Z,95.9
2019-05-29T18:28:44.398Z,95.9
2019-05-29T18:29:45.830Z,95.9
2019-05-29T18:30:47.294Z,95.9
2019-05-29T18:31:48.322Z,96
2019-05-29T18:32:49.742Z,96.1
2019-05-29T18:37:55.701Z,96.2
2019-05-29T18:38:57.102Z,95.9
2019-05-29T18:39:58.485Z,96
2019-05-29T18:41:00.047Z,95.9
2019-05-29T18:42:00.810Z,96